Date,TemperatureHighF,TemperatureAvgF,TemperatureLowF,DewpointHighF,DewpointAvgF,DewpointLowF,HumidityHigh,HumidityAvg,HumidityLow,PressureMaxIn,PressureMinIn,WindSpeedMaxMPH,WindSpeedAvgMPH,GustSpeedMaxMPH,PrecipitationSumIn
2014-2-5,70.0,70.0,69.9,67.9,67.9,67.8,93,93,93,29.86,29.86,1,0,1,0.01
2014-2-6,69.9,59.3,48.5,67.9,55.9,46.0,95,89,78,30.03,29.86,15,4,15,0.03
2014-2-7,56.8,53.8,49.1,55.4,52.0,46.3,97,94,90,30.02,29.94,12,4,13,0.02
2014-2-8,57.2,55.5,53.7,56.1,54.3,52.0,96,96,94,29.98,29.87,12,2,13,0.27
2014-2-9,72.0,59.0,48.0,58.3,52.6,46.6,96,81,52,29.97,29.86,10,2,11,0.00
2014-2-10,75.2,60.4,46.6,56.6,51.2,45.0,96,74,45,29.95,29.85,8,1,8,0.00
2014-2-11,83.4,64.2,48.0,63.8,55.6,46.1,97,77,48,29.89,29.78,15,2,15,0.00
2014-2-12,78.3,64.0,58.1,64.8,59.4,56.4,98,87,56,29.87,29.51,30,4,30,0.78
2014-2-13,63.3,54.1,42.0,61.8,47.9,39.6,95,80,63,29.81,29.50,30,8,30,0.01
2014-2-14,68.7,52.3,36.4,47.8,42.1,34.3,95,72,38,29.90,29.74,11,1,11,0.00
2014-2-15,69.7,57.5,47.2,57.3,46.8,34.7,94,71,29,29.97,29.72,21,5,21,0.00
2014-2-16,74.5,55.9,40.1,51.2,42.5,36.3,95,66,26,30.03,29.93,9,1,9,0.00
2014-2-17,80.8,59.8,41.5,52.2,44.8,39.3,96,64,27,30.07,29.96,9,1,9,0.00
2014-2-18,82.9,71.1,47.9,57.7,54.2,46.3,95,59,35,30.05,29.95,9,1,10,0.00
2014-2-19,84.2,73.4,55.7,64.2,61.0,54.3,96,68,47,30.00,29.87,12,2,13,0.00
2014-2-20,84.8,72.8,61.1,67.8,64.4,57.8,95,77,48,29.97,29.86,16,4,16,0.00
2014-2-21,78.7,72.6,67.7,74.3,69.3,66.2,96,90,79,29.88,29.79,18,3,20,0.12
2014-2-22,82.5,71.2,66.5,72.3,68.1,64.0,97,90,67,29.91,29.82,11,1,11,0.20
2014-2-23,87.1,71.2,65.1,72.2,66.6,62.6,97,87,53,29.89,29.78,17,2,18,0.00
2014-2-24,76.0,68.3,63.1,69.5,64.9,60.6,96,89,79,29.88,29.76,8,1,8,0.01
2014-2-25,81.4,68.7,59.8,65.8,61.6,58.1,96,80,53,29.88,29.74,13,1,13,0.00
2014-2-26,71.7,62.8,56.6,67.9,60.9,54.8,97,94,81,29.78,29.53,11,0,16,0.69
2014-2-27,62.8,56.3,51.0,61.6,51.8,46.1,97,85,63,29.78,29.60,16,2,16,0.03
2014-2-28,71.2,57.9,45.0,52.9,45.3,37.1,90,67,31,29.93,29.76,10,1,10,0.00
2014-3-1,75.1,61.2,46.6,60.7,53.8,44.3,98,79,46,30.05,29.90,10,2,10,0.00
2014-3-2,83.2,67.7,56.4,63.6,58.1,54.1,95,74,44,30.03,29.87,11,1,11,0.00
2014-3-3,83.2,68.0,53.5,65.5,59.7,51.7,96,77,48,29.88,29.76,17,3,19,0.00
2014-3-4,81.2,67.7,58.7,68.1,63.1,56.1,96,86,62,29.88,29.77,11,2,12,0.00
2014-3-5,75.2,63.1,57.3,65.2,58.9,55.1,95,87,69,29.88,29.77,10,2,10,0.00
2014-3-6,68.9,63.4,58.2,65.6,61.6,56.1,97,94,87,29.84,29.51,8,2,13,0.53
2014-3-7,62.6,53.9,45.2,60.8,50.9,41.6,96,89,82,29.89,29.58,16,3,16,0.01
2014-3-8,74.7,59.2,43.3,57.8,51.0,40.7,93,76,52,29.98,29.87,9,1,10,0.00
2014-3-9,81.0,64.9,51.1,61.1,55.3,49.0,96,74,47,30.02,29.88,7,0,8,0.00
2014-3-10,81.8,65.9,53.6,58.8,54.6,51.2,94,70,39,29.95,29.77,10,1,10,0.00
2014-3-11,84.3,66.3,50.7,63.0,56.5,48.8,97,74,36,29.82,29.63,9,1,9,0.00
2014-3-12,79.1,69.9,63.4,69.3,64.3,57.5,95,83,61,29.66,29.53,18,6,25,0.21
2014-3-13,68.2,61.7,48.5,60.7,43.7,36.6,89,54,32,30.03,29.66,19,4,19,0.00
2014-3-14,76.9,61.8,47.2,56.5,48.8,40.0,79,64,42,30.09,29.95,17,2,18,0.00
2014-3-15,80.2,64.6,57.5,61.4,56.1,52.6,88,75,45,30.00,29.83,11,1,13,0.00
2014-3-16,84.2,72.7,63.4,66.0,62.6,58.9,90,72,52,29.86,29.56,20,6,26,0.00
2014-3-17,74.2,71.4,68.5,71.6,67.9,63.8,98,89,78,29.58,29.47,16,6,25,1.24
2014-3-18,76.4,67.7,59.3,70.4,59.1,54.1,96,76,49,29.86,29.42,21,4,23,0.43
2014-3-19,78.8,66.8,59.0,62.2,58.9,56.1,92,77,54,29.93,29.82,7,1,8,0.00
2014-3-20,84.4,69.4,58.7,65.2,60.7,56.8,95,76,49,29.90,29.76,10,1,11,0.00
2014-3-21,84.3,71.8,61.0,65.9,61.8,58.3,94,73,45,29.91,29.81,15,2,16,0.00
2014-3-22,84.3,73.9,64.4,68.6,63.2,56.3,93,71,48,29.87,29.75,16,4,17,0.00
2014-3-23,82.1,70.6,63.1,71.1,65.1,59.1,93,84,68,30.05,29.80,16,2,17,0.00
2014-3-24,72.5,67.3,62.3,65.9,62.4,58.5,94,85,74,30.09,29.93,13,3,13,0.00
2014-3-25,73.8,63.7,57.3,62.3,55.0,35.7,94,76,41,30.05,29.86,26,6,26,0.01
2014-3-26,65.2,54.2,43.4,42.8,33.5,26.1,70,46,31,30.31,30.05,18,4,19,0.00
2014-3-27,69.3,60.8,49.5,60.2,53.3,41.7,86,77,66,30.34,30.22,14,2,15,0.00
2014-3-28,81.8,72.0,63.9,66.4,63.4,59.0,90,75,53,30.22,30.02,19,4,19,0.00
2014-3-29,74.3,69.9,66.6,71.4,67.4,64.3,96,92,80,30.06,29.88,23,4,23,1.79
2014-3-30,75.6,63.7,54.2,64.2,52.2,46.1,94,69,37,30.11,29.93,15,4,16,0.00
2014-3-31,80.0,62.9,47.7,57.7,50.1,43.5,98,68,31,30.17,30.09,6,0,6,0.00
2014-4-1,87.0,67.4,48.3,61.6,52.5,46.4,97,66,27,30.20,30.09,8,0,9,0.00
2014-4-2,87.4,76.3,67.5,62.9,59.8,55.4,80,59,35,30.20,30.11,11,3,14,0.00
2014-4-3,88.6,74.2,60.1,67.9,62.7,57.6,95,70,39,30.16,30.02,13,2,13,0.00
2014-4-4,87.0,73.9,62.9,68.0,64.8,60.2,95,76,48,30.08,29.98,14,2,15,0.00
2014-4-5,83.6,67.3,61.8,70.6,64.2,60.2,97,90,59,30.07,29.96,6,0,6,0.00
2014-4-11,80.7,73.5,67.9,66.6,64.3,62.4,83,73,60,30.18,30.13,11,3,15,0.00
2014-4-12,75.0,68.1,66.1,65.6,63.4,62.1,90,85,72,30.19,30.14,8,1,8,0.00